Aviation Digital Data Service (ADDS)

Output produced by METARs form (1101 UTC 30 April 2017)
found at http://www.aviationweather.gov/adds/metars/
 
UKKM 301030Z 33004MPS 310V030 CAVOK 17/09 Q1016 R33/CLRD70 NOSIG
TAF UKKM 300555Z 3006/0106 02004MPS 9999 BKN012 BKN030 
     TEMPO 3008/3015 3000 -SHRA SCT007 SCT020CB 
     BECMG 3015/3017 32005MPS 
     TEMPO 3018/0106 3000 -SHRA BR BKN007 SCT020CB
       
UKBB 301030Z 19004MPS 140V250 CAVOK 25/00 Q1015 R88/D NOSIG
TAF UKBB 300503Z 3006/0106 01003G08MPS 9999 BKN040 
     TEMPO 3006/3017 24005G12MPS 3000 -SHRA SCT005 SCT020CB 
     PROB40 
     TEMPO 3006/3017 VRB11G16MPS -TSRA BKN020CB 
     BECMG 3017/3019 32005G10MPS BKN020
       
UKBB 301030Z 19004MPS 140V250 CAVOK 25/00 Q1015 R88/D NOSIG
TAF UKBB 300503Z 3006/0106 01003G08MPS 9999 BKN040 
     TEMPO 3006/3017 24005G12MPS 3000 -SHRA SCT005 SCT020CB 
     PROB40 
     TEMPO 3006/3017 VRB11G16MPS -TSRA BKN020CB 
     BECMG 3017/3019 32005G10MPS BKN020
       
UKDD 301030Z 06002MPS 010V100 CAVOK 24/07 Q1016 R08/090070 NOSIG
TAF UKDD 300507Z 3006/0106 VRB02MPS CAVOK 
     TEMPO 3006/3018 11005MPS
       
UKDE 301030Z 05003MPS 010V100 CAVOK 24/09 Q1016 R02/////// NOSIG
TAF UKDE 300807Z 3009/3018 09003MPS 9999 SCT030 
     TEMPO 3009/3015 13006MPS
       
UKDR 301030Z VRB04MPS CAVOK 23/04 Q1016 R18/09//70 NOSIG
TAF UKDR 300504Z 3006/0106 VRB02MPS CAVOK 
     TEMPO 3009/3015 13005G10MPS
       
UKHH 301030Z 13005MPS 100V170 CAVOK 23/05 Q1018 R07/0///67 NOSIG
TAF UKHH 300810Z 3009/3018 12005MPS CAVOK
       
UKKK 301030Z 01004MPS CAVOK 20/09 Q1016 R08/70D NOSIG
TAF UKKK 300501Z 3006/0106 05003G08MPS 9999 BKN030 
     TEMPO 3009/3017 08008G13MPS 3000 -SHRA SCT007 SCT025CB 
     PROB40 
     TEMPO 3009/3017 VRB11G16MPS -TSRAGR BKN020CB 
     BECMG 3017/3018 27005G10MPS 
     TEMPO 3018/0106 2100 -SHRA BR BKN006 SCT015CB
       
UKKM 301030Z 33004MPS 310V030 CAVOK 17/09 Q1016 R33/CLRD70 NOSIG
TAF UKKM 300555Z 3006/0106 02004MPS 9999 BKN012 BKN030 
     TEMPO 3008/3015 3000 -SHRA SCT007 SCT020CB 
     BECMG 3015/3017 32005MPS 
     TEMPO 3018/0106 3000 -SHRA BR BKN007 SCT020CB
       
UKLI 301030Z 34002MPS 270V020 9999 BKN009 BKN020CB 08/06 Q1020 R28/210360 NOSIG
TAF UKLI 300802Z 3009/3018 35005MPS 9999 BKN007 
     TEMPO 3009/3018 2100 -SHRA BR BKN004 BKN010CB
       
UKLL 301030Z 08003MPS 050V140 9999 SCT017CB BKN017 08/03 Q1020 R13/290060 NOSIG
TAF UKLL 300502Z 3006/0106 03005MPS 4000 BR BKN007 
     TEMPO 3006/3016 06005MPS 1100 -SHRA BKN003 BKN017CB 
     BECMG 3016/3018 VRB02MPS 2100 BR 
     TEMPO 3018/0106 06003MPS 0400 FG VV002 TX08/3010Z TN02/0103Z
       
UKLN 301030Z 30004MPS 270V350 9999 -SHRA BKN009 BKN026CB 07/07 Q1019 R33/290260 NOSIG
TAF UKLN 300807Z 3009/3018 31006G11MPS 9999 BKN011 BKN030CB 
     TEMPO 3009/3015 2100 -SHRA BKN007 BKN020CB
       
UKLR 301030Z 01004MPS 9999 -SHRA SCT016 BKN016CB 06/05 Q1020 NOSIG
TAF UKLR 300804Z 3009/3018 01006G11MPS 9999 BKN010 SCT013CB 
     TEMPO 3009/3015 03009G14MPS 2100 -SHRA BR BKN005 BKN013CB
       
UKLU 301030Z VRB01MPS 9999 OVC033 10/05 Q1020 R10/190065 NOSIG
TAF UKLU 300806Z 3009/3018 05003MPS 9999 BKN040 
     TEMPO 3009/3015 01005G10MPS
       
UKOH 301030Z 07003MPS 020V130 CAVOK 24/08 Q1015 R03/CLRD// NOSIG
TAF UKOH 300804Z 3009/3018 12005G10MPS 9999 SCT030
       
UKON 301000Z VRB01MPS CAVOK 23/05 Q1015 NOSIG
TAF UKON 300803Z 3009/3018 12003MPS 9999 SCT030CB 
     TEMPO 3009/3018 15007G13MPS
       
UKOO 301030Z 20003MPS 150V230 CAVOK 22/03 Q1016 R16/090060 NOSIG
TAF UKOO 300505Z 3006/0106 11003MPS 6000 SCT004 BKN007 SCT015CB 
     TEMPO 3009/3022 36006MPS 
     PROB40 
     TEMPO 3009/3015 2100 -TSRA 
     BECMG 3022/3023 2100 BR
       
UKWW 301030Z 01005MPS 2300 -SHRA BR SCT012 BKN015CB 10/09 Q1016 R31/0///65 NOSIG
TAF UKWW 300810Z 3009/3018 35005G10MPS 9999 BKN020 
     TEMPO 3009/3015 3000 -SHRA SCT005 BKN015CB
       
UKLN 301030Z 30004MPS 270V350 9999 -SHRA BKN009 BKN026CB 07/07 Q1019 R33/290260 NOSIG
TAF UKLN 300807Z 3009/3018 31006G11MPS 9999 BKN011 BKN030CB 
     TEMPO 3009/3015 2100 -SHRA BKN007 BKN020CB
       
UKDD 301030Z 06002MPS 010V100 CAVOK 24/07 Q1016 R08/090070 NOSIG
TAF UKDD 300507Z 3006/0106 VRB02MPS CAVOK 
     TEMPO 3006/3018 11005MPS
       
UKLI 301030Z 34002MPS 270V020 9999 BKN009 BKN020CB 08/06 Q1020 R28/210360 NOSIG
TAF UKLI 300802Z 3009/3018 35005MPS 9999 BKN007 
     TEMPO 3009/3018 2100 -SHRA BR BKN004 BKN010CB
       
UKDR 301030Z VRB04MPS CAVOK 23/04 Q1016 R18/09//70 NOSIG
TAF UKDR 300504Z 3006/0106 VRB02MPS CAVOK 
     TEMPO 3009/3015 13005G10MPS
       
UKLL 301030Z 08003MPS 050V140 9999 SCT017CB BKN017 08/03 Q1020 R13/290060 NOSIG
TAF UKLL 300502Z 3006/0106 03005MPS 4000 BR BKN007 
     TEMPO 3006/3016 06005MPS 1100 -SHRA BKN003 BKN017CB 
     BECMG 3016/3018 VRB02MPS 2100 BR 
     TEMPO 3018/0106 06003MPS 0400 FG VV002 TX08/3010Z TN02/0103Z
       
UKDE 301030Z 05003MPS 010V100 CAVOK 24/09 Q1016 R02/////// NOSIG
TAF UKDE 300807Z 3009/3018 09003MPS 9999 SCT030 
     TEMPO 3009/3015 13006MPS
       
UKON 301000Z VRB01MPS CAVOK 23/05 Q1015 NOSIG
TAF UKON 300803Z 3009/3018 12003MPS 9999 SCT030CB 
     TEMPO 3009/3018 15007G13MPS
       
UKOO 301030Z 20003MPS 150V230 CAVOK 22/03 Q1016 R16/090060 NOSIG
TAF UKOO 300505Z 3006/0106 11003MPS 6000 SCT004 BKN007 SCT015CB 
     TEMPO 3009/3022 36006MPS 
     PROB40 
     TEMPO 3009/3015 2100 -TSRA 
     BECMG 3022/3023 2100 BR
       
UKHH 301030Z 13005MPS 100V170 CAVOK 23/05 Q1018 R07/0///67 NOSIG
TAF UKHH 300810Z 3009/3018 12005MPS CAVOK
       
UKLR 301030Z 01004MPS 9999 -SHRA SCT016 BKN016CB 06/05 Q1020 NOSIG
TAF UKLR 300804Z 3009/3018 01006G11MPS 9999 BKN010 SCT013CB 
     TEMPO 3009/3015 03009G14MPS 2100 -SHRA BR BKN005 BKN013CB
       
UKLU 301030Z VRB01MPS 9999 OVC033 10/05 Q1020 R10/190065 NOSIG
TAF UKLU 300806Z 3009/3018 05003MPS 9999 BKN040 
     TEMPO 3009/3015 01005G10MPS
       
UKKK 301030Z 01004MPS CAVOK 20/09 Q1016 R08/70D NOSIG
TAF UKKK 300501Z 3006/0106 05003G08MPS 9999 BKN030 
     TEMPO 3009/3017 08008G13MPS 3000 -SHRA SCT007 SCT025CB 
     PROB40 
     TEMPO 3009/3017 VRB11G16MPS -TSRAGR BKN020CB 
     BECMG 3017/3018 27005G10MPS 
     TEMPO 3018/0106 2100 -SHRA BR BKN006 SCT015CB